Aérodrome :
LOGIN :

S'inscrire | Disclaimer

   EN    FR    IT 

 










Légende :    VFR   VFR Marginal   IFR   IFR Intensif   IFR Très Intensif
Visi : 
Plafond : 
>= 8 km
>= 3000ft
5 à 8 km
1000 à 3000 ft
1500m à 5 km
500 à 1000 ft
800 à 1500m
200 à 500 ft
< 800m
< 200 ft
Symboles :   Orages  Brouillard  Fortes neiges  Fortes précipitations  Vent > 20 kt
SIGMETs :   Divers  Orages  Givrage  Turbulence  Onde Orograph.  Cendres Volcan.







- Altitude de l'aérodrome : 11 ft
- Code IATA : MJV


LELC - Murcia San Javier

DERNIER METAR :
  • 161530Z 10005KT 050V120 9999 FEW040TCU 21/16 Q1013 NOSIG

METARs EXPIRÉS :
  • 161500Z 10006KT 060V130 9999 FEW040CB 21/16 Q1013 NOSIG
  • 161430Z 06007KT 020V110 9999 FEW050TCU 21/15 Q1013 NOSIG
  • 161400Z 04006KT 010V070 9999 NSC 22/14 Q1013 NOSIG
  • 161330Z 04007KT 360V100 9999 FEW035TCU 22/15 Q1013 NOSIG
  • 161300Z 04007KT 010V080 9999 FEW030TCU 21/15 Q1013 NOSIG

TAF COR TAF LELC
Valide du 16 à 12h jusqu'au 17 à 12h UTC


161133Z 1612/1712 04010KT 9999 FEW020 SCT040 TX23/1614Z TN15/1706Z
PROB40
TEMPO 1612/1624 4000 SHRA SCT020TCU
PROB30
TEMPO 1612/1618 3000 TSRA SCT020CB
Pas de NOTAMs connus pour ce terrain.
2 SIGMETs publiés pour la FIR Barcelona (LECB) :
 
Orages noyés dans la masse
LECB SIGMET 8 VALID 161456/161700 LEVA
LECB BARCELONA FIR/UIR EMBD TS OBS AT 1456Z WI N3959 W00057 - N3957 W00018 - N3842 W00004 - N3828 W00119 - N3959 W00057 TOP FL380 STNR NC=
Orages noyés dans la masse
LECB SIGMET 7 VALID 161500/161700 LEVA
LECB BARCELONA FIR/UIR EMBD TS OBS AT 1456Z WI N3740 E00155 - N3855 E00041 - N3927 E00136 - N3823 E00238 - N3927 E00437 - N3856 E00440 - N3813 E00338 - N3740 E00155 TOP FL380 STNR NC=



MET'MAP, la Météo Aéronautique d'un coup d'oeil ! - Copyright ORBIFLY Décembre 2007 - Disclaimer

ORBIFLY MET'MAP TEAM :

Programmation & Développement : Alexandra Zaïnal
Conception & Développement : Baudouin d'Aumeries
Co-Programmation & Développement : Marc-Olivier Méhu
Soutien technique & logistique : Manuel Goepfert

Contact : metmap@orbifly.com




SOURCES & CREDITS :

   NOAA